Scroll down
FLIGHT INFORMATION
Alaska Airlines

ASA720

At Arrival Gate

KJAC
 KMRY
DATE: 2020-07-20
GATE:  -
GATE DEPARTURE: 10:57
TAKEOFF: 11:21
DATE: 2020-07-20
GATE:  -
LANDING: 13:11
GATE ARRIVAL: 13:14
FLIGHT DATA
Crew: 
Speed: 
462 kts
Altitude: 
38,018 ft
Stage Length: 
660.6 nm
Block Time: 
1.9 hrs
Flight Time: 
1.8 hrs
Fuel Used: 
9,815 lb
Cleared Route: KJAC NALSI IDA ROGET BAM PUSHH SNS KMRY
TRACK DATA
50,000 ft 1,000 kts
AIRCRAFT INFO AND CUMULATIVE STATS
Aircraft Type: 
B737BW
Registration: 
SELCAL: 
FLAP
MSN/LN: 
29753 / 385
Operator: 
Total Flights: 
13
Total Block Time: 
21.7 hrs
Total Flight Time: 
18.8 hrs
Total Fuel Used: 
118,696 lb
DATALINK LOG | Newest first | Current as of: 2021-11-30 21:55:12
LABEL SEQUENCE CONTENT Dn/Up
QD224713:14 4.9▼ Dn
QC194613:11▼ Dn
2U3926KMRY 201220Z AUTO 36003KT 10SM OVC009 15/12 A3003 RMK AO2 T01500117▲ Up
2S4704KMRY▼ Dn
5R3004NALSI 11:26z 15600 IDA 11:36z ROGET 289 13.4 -2 280/19 KMRY 13:08z▼ Dn
QB225711:21▼ Dn
2U0156KJAC 200956Z AUTO 00000KT 10SM CLR 06/02 A3022 RMK AO2 SLP183 T00610017▲ Up
2S0137KJAC▼ Dn
A35935CLEARED TO KMRY VIA GEYSR5 NALSI IDA ROGET BAM PUSHH SNS. SQUAWK .▲ Up
B35935KJAC KMRY ASA720 N611AS ▼ Dn
QA583410:57 14.8▼ Dn
A35641CLEARED TO KMRY VIA GEYSR5 NALSI IDA ROGET BAM PUSHH SNS. SQUAWK .▲ Up
Q05531[LINK ACK]▲ Up
Q05531[LINK TEST]▼ Dn


AIRCRAFT HISTORY
FLIGHT DATE FLIGHT NO. ORIGIN DESTINATION CLEARED ROUTE BLOCK TIME FLIGHT TIME FUEL USED PILOT
2020-12-28ASA1228PAJN PANC PAJN CGLNB BARLO LYNNS CUSHI ASORT BERGS FAKES YAK JOH DENSN PTERS SKENS MMMAT BBELL DDOUG LMPEE CARDD RW151.6 hrs1.5 hrs7,817 lbDan Downs
2020-08-16ASA64PAYA PAJN 0.7 hrs0.6 hrs4,508 lbKurt Kalbfleisch
2020-08-16ASA64PANC PAYA PANC HEJNO PAYA1.2 hrs0.9 hrs6,579 lbKurt Kalbfleisch
2020-08-15ASA61PACV PANC 0.8 hrs0.6 hrs4,943 lbKurt Kalbfleisch
2020-08-15ASA61PAYA PACV PAYA OCC ATAGA FORAT PACV0.9 hrs0.6 hrs5,039 lbKurt Kalbfleisch
2020-08-14ASA61PAJN PAYA 0.8 hrs0.7 hrs5,313 lbKurt Kalbfleisch
2020-08-14ASA61KSEA PAJN KSEA PANGL KEVNA LVD STVNS PAJN2.6 hrs2.3 hrs14,901 lbKurt Kalbfleisch
2020-08-12ASA1253KSFO KSEA KSFO TYDYE TRUKN DEDHD RBL LMT KNGDM WRUSL BTG PTERA KRIEG HAWKZ LIINE PIKEZ COFAY BREVE NETTZ KWEST VASHN KARFO RW16L1.7 hrs1.5 hrs8,733 lbRobin Oeverby
2020-08-04KPDX KSFO KPDX PEGTY KELYY DUDRE MINNE FAMUK FRFLY FINER FOWND MLBEC JONNE BGGLO LOZIT STLER WESLA MVRKK CCR RW19L2 hrs1.6 hrs10,180 lbKurt Kalbfleisch
2020-08-04KSAN KPDX KSAN WNFLD KERNL GYWNN PADRZ HFMNN CHKNN RIDDL LANDO EHF SHIMR GALLO RENAA MOXEE PORTL TMBRS VANTZ FLOWR WIDMR ROAGE ICEAX HANAH RW28L2.6 hrs2.3 hrs14,676 lbKurt Kalbfleisch
2020-08-02KMRY KSAN KMRY SHOEY BSR MQO RZS LAX MRVEL SPYDE GAMBT LEJEN COMIX FLSHH LNTRN XMANS KLOMN NADDO KLOMN RW271.7 hrs1.4 hrs9,800 lbKurt Kalbfleisch
2020-07-20ASA720KJAC KMRY KJAC NALSI IDA ROGET BAM PUSHH SNS KMRY1.9 hrs1.8 hrs9,815 lbMarc O'Eland
2020-07-17ASA717PAJN KJAC PAJN LVD YZT YVR MWH LKT TOCUD DNW KJAC3.2 hrs3 hrs16,393 lbMarc O'Eland